createdAt,value
2023-10-30T00:00:48.178Z,9.80
2023-10-30T00:03:16.261Z,10.68
2023-10-30T00:05:43.680Z,10.60
2023-10-30T00:08:11.161Z,10.63
2023-10-30T00:10:38.613Z,9.40
2023-10-30T00:13:06.041Z,13.23
2023-10-30T00:15:33.647Z,8.38
2023-10-30T00:18:00.952Z,10.45
2023-10-30T00:20:28.307Z,7.18
2023-10-30T00:22:55.590Z,11.88
2023-10-30T00:25:23.069Z,11.57
2023-10-30T00:27:50.342Z,7.18
2023-10-30T00:30:17.829Z,10.48
2023-10-30T00:32:45.363Z,8.93
2023-10-30T00:35:12.791Z,8.27
2023-10-30T00:37:40.029Z,13.13
2023-10-30T00:40:08.552Z,8.30
2023-10-30T00:42:36.630Z,9.18
2023-10-30T00:45:05.733Z,9.65
2023-10-30T00:47:33.398Z,8.43
2023-10-30T00:50:01.216Z,9.07
2023-10-30T00:52:28.496Z,10.63
2023-10-30T00:54:55.948Z,11.13
2023-10-30T00:57:24.050Z,9.60
2023-10-30T00:59:51.672Z,6.68
2023-10-30T01:02:19.315Z,7.30
2023-10-30T01:04:47.090Z,8.20
2023-10-30T01:07:14.523Z,7.88
2023-10-30T01:09:42.722Z,8.13
2023-10-30T01:12:10.468Z,8.82
2023-10-30T01:14:37.885Z,8.80
2023-10-30T01:17:05.528Z,8.43
2023-10-30T01:19:32.979Z,8.90
2023-10-30T01:22:00.348Z,7.45
2023-10-30T01:24:27.939Z,7.25
2023-10-30T01:26:55.271Z,9.80
2023-10-30T01:29:22.617Z,6.70
2023-10-30T01:31:50.018Z,9.35
2023-10-30T01:34:17.436Z,7.65
2023-10-30T01:36:45.059Z,6.53
2023-10-30T01:39:13.190Z,7.30
2023-10-30T01:41:43.421Z,8.23
2023-10-30T01:44:10.928Z,7.20
2023-10-30T01:46:38.410Z,8.45
2023-10-30T01:49:06.249Z,5.97
2023-10-30T01:51:33.674Z,7.57
2023-10-30T01:54:01.282Z,7.68
2023-10-30T01:56:28.720Z,7.15
2023-10-30T01:58:56.660Z,7.07
2023-10-30T02:01:24.746Z,7.15
2023-10-30T02:03:53.716Z,7.10
2023-10-30T02:06:21.796Z,6.60
2023-10-30T02:08:49.707Z,7.53
2023-10-30T02:11:17.040Z,10.43
2023-10-30T02:13:54.273Z,6.72
2023-10-30T02:16:21.675Z,7.28
2023-10-30T02:18:49.022Z,7.88
2023-10-30T02:21:18.772Z,9.48
2023-10-30T02:23:46.229Z,8.23
2023-10-30T02:26:13.921Z,5.43
2023-10-30T02:28:41.235Z,8.88
2023-10-30T02:31:08.581Z,7.57
2023-10-30T02:33:36.074Z,8.02
2023-10-30T02:36:03.784Z,7.22
2023-10-30T02:38:31.092Z,6.25
2023-10-30T02:41:00.196Z,5.82
2023-10-30T02:43:27.561Z,8.82
2023-10-30T02:45:55.138Z,6.15
2023-10-30T02:48:22.660Z,5.82
2023-10-30T02:50:50.119Z,7.97
2023-10-30T02:53:17.432Z,8.82
2023-10-30T02:55:45.030Z,7.50
2023-10-30T02:58:12.380Z,6.78
2023-10-30T03:00:40.759Z,6.97
2023-10-30T03:03:08.430Z,6.15
2023-10-30T03:05:35.996Z,7.60
2023-10-30T03:08:04.977Z,6.25
2023-10-30T03:10:32.544Z,5.88
2023-10-30T03:13:02.118Z,7.15
2023-10-30T03:15:29.481Z,5.93
2023-10-30T03:17:56.921Z,10.50
2023-10-30T03:20:24.699Z,7.25
2023-10-30T03:22:53.349Z,5.68
2023-10-30T03:25:20.918Z,5.82
2023-10-30T03:27:48.429Z,6.53
2023-10-30T03:30:17.380Z,6.32
2023-10-30T03:32:44.769Z,6.53
2023-10-30T03:35:12.078Z,6.75
2023-10-30T03:37:39.401Z,6.30
2023-10-30T03:40:07.714Z,9.45
2023-10-30T03:42:35.522Z,6.43
2023-10-30T03:45:03.074Z,5.72
2023-10-30T03:47:30.696Z,6.35
2023-10-30T03:49:58.368Z,9.00
2023-10-30T03:52:25.593Z,6.18
2023-10-30T03:54:53.009Z,6.90
2023-10-30T03:57:20.258Z,5.28
2023-10-30T03:59:47.887Z,7.20
2023-10-30T04:02:15.622Z,9.90
2023-10-30T04:04:43.053Z,5.82
2023-10-30T04:07:10.383Z,8.10
2023-10-30T04:09:37.925Z,5.47
2023-10-30T04:12:06.032Z,6.70
2023-10-30T04:14:33.714Z,5.63
2023-10-30T04:17:04.383Z,6.50
2023-10-30T04:19:32.009Z,5.50
2023-10-30T04:21:59.396Z,6.05
2023-10-30T04:24:26.908Z,5.00
2023-10-30T04:26:54.241Z,8.30
2023-10-30T04:29:21.610Z,7.50
2023-10-30T04:31:49.072Z,4.60
2023-10-30T04:34:16.489Z,4.50
2023-10-30T04:36:43.801Z,5.15
2023-10-30T04:39:12.346Z,7.10
2023-10-30T04:41:39.738Z,6.22
2023-10-30T04:44:07.985Z,5.50
2023-10-30T04:46:35.433Z,9.80
2023-10-30T04:49:02.804Z,5.13
2023-10-30T04:51:30.219Z,6.60
2023-10-30T04:53:57.679Z,8.48
2023-10-30T04:56:25.005Z,5.10
2023-10-30T04:58:52.432Z,5.40
2023-10-30T05:01:19.843Z,5.57
2023-10-30T05:03:47.481Z,6.70
2023-10-30T05:06:14.904Z,8.60
2023-10-30T05:08:42.365Z,5.20
2023-10-30T05:11:09.704Z,8.07
2023-10-30T05:13:37.156Z,5.22
2023-10-30T05:16:04.843Z,5.85
2023-10-30T05:18:32.519Z,13.75
2023-10-30T05:20:59.835Z,6.20
2023-10-30T05:23:27.365Z,6.10
2023-10-30T05:25:54.673Z,7.88
2023-10-30T05:28:24.396Z,8.65
2023-10-30T05:30:54.501Z,11.23
2023-10-30T05:33:21.933Z,6.05
2023-10-30T05:35:51.916Z,9.38
2023-10-30T05:38:19.742Z,9.43
2023-10-30T05:40:47.928Z,7.47
2023-10-30T05:43:15.468Z,5.95
2023-10-30T05:45:42.949Z,8.38
2023-10-30T05:48:10.193Z,5.05
2023-10-30T05:50:37.592Z,5.43
2023-10-30T05:53:04.960Z,6.68
2023-10-30T05:55:33.360Z,5.53
2023-10-30T05:58:00.657Z,6.85
2023-10-30T06:00:28.228Z,5.43
2023-10-30T06:02:55.540Z,7.88
2023-10-30T06:05:23.504Z,7.47
2023-10-30T06:07:50.802Z,6.38
2023-10-30T06:10:20.883Z,6.38
2023-10-30T06:12:48.890Z,5.88
2023-10-30T06:15:16.313Z,6.72
2023-10-30T06:17:43.781Z,5.40
2023-10-30T06:20:11.695Z,5.55
2023-10-30T06:22:39.213Z,4.72
2023-10-30T06:25:07.233Z,6.32
2023-10-30T06:27:36.281Z,5.05
2023-10-30T06:30:03.932Z,5.53
2023-10-30T06:32:33.135Z,6.25
2023-10-30T06:35:00.780Z,9.15
2023-10-30T06:37:28.325Z,7.30
2023-10-30T06:39:56.093Z,6.15
2023-10-30T06:42:23.728Z,5.60
2023-10-30T06:44:53.156Z,5.80
2023-10-30T06:47:20.541Z,6.18
2023-10-30T06:49:48.685Z,6.00
2023-10-30T06:52:16.164Z,5.10
2023-10-30T06:54:43.499Z,6.10
2023-10-30T06:57:10.999Z,5.13
2023-10-30T06:59:38.293Z,4.60
2023-10-30T07:02:06.057Z,5.20
2023-10-30T07:04:33.845Z,6.35
2023-10-30T07:07:03.509Z,5.50
2023-10-30T07:09:30.963Z,5.28
2023-10-30T07:11:58.584Z,5.63
2023-10-30T07:14:26.012Z,5.82
2023-10-30T07:17:04.504Z,5.35
2023-10-30T07:19:33.120Z,4.95
2023-10-30T07:22:02.212Z,5.63
2023-10-30T07:24:29.715Z,5.30
2023-10-30T07:26:59.242Z,4.95
2023-10-30T07:29:26.788Z,4.63
2023-10-30T07:31:54.169Z,5.00
2023-10-30T07:34:23.230Z,4.47
2023-10-30T07:36:50.723Z,4.03
2023-10-30T07:39:18.562Z,5.57
2023-10-30T07:41:46.064Z,4.40
2023-10-30T07:44:13.395Z,3.63
2023-10-30T07:46:40.853Z,3.92
2023-10-30T07:49:09.213Z,4.10
2023-10-30T07:51:36.505Z,4.45
2023-10-30T07:54:03.988Z,4.13
2023-10-30T07:56:31.325Z,5.15
2023-10-30T07:58:58.695Z,5.43
2023-10-30T08:01:26.336Z,5.20
2023-10-30T08:03:53.858Z,5.00
2023-10-30T08:06:22.898Z,5.80
2023-10-30T08:08:50.205Z,4.68
2023-10-30T08:11:17.466Z,5.85
2023-10-30T08:13:44.836Z,5.03
2023-10-30T08:16:12.099Z,4.05
2023-10-30T08:18:40.703Z,5.10
2023-10-30T08:21:08.711Z,4.60
2023-10-30T08:23:38.819Z,4.80
2023-10-30T08:26:07.513Z,5.07
2023-10-30T08:28:35.486Z,5.78
2023-10-30T08:31:03.109Z,5.82
2023-10-30T08:33:30.939Z,5.03
2023-10-30T08:35:58.654Z,4.93
2023-10-30T08:38:26.030Z,5.25
2023-10-30T08:40:53.351Z,4.47
2023-10-30T08:43:20.596Z,4.50
2023-10-30T08:45:47.861Z,4.18
2023-10-30T08:48:19.163Z,5.32
2023-10-30T08:50:47.693Z,4.22
2023-10-30T08:53:16.557Z,5.78
2023-10-30T08:55:43.961Z,4.53
2023-10-30T08:58:11.151Z,3.60
2023-10-30T09:00:38.805Z,5.15
2023-10-30T09:03:06.359Z,5.88
2023-10-30T09:05:34.031Z,5.40
2023-10-30T09:08:01.539Z,4.95
2023-10-30T09:10:33.492Z,5.00
2023-10-30T09:13:00.885Z,5.50
2023-10-30T09:15:29.084Z,6.72
2023-10-30T09:17:56.894Z,7.43
2023-10-30T09:20:24.295Z,5.82
2023-10-30T09:22:51.703Z,6.22
2023-10-30T09:25:18.968Z,6.50
2023-10-30T09:27:47.110Z,6.00
2023-10-30T09:30:16.668Z,6.68
2023-10-30T09:32:43.992Z,5.82
2023-10-30T09:35:11.616Z,5.30
2023-10-30T09:37:39.145Z,5.63
2023-10-30T09:40:08.594Z,6.05
2023-10-30T09:42:37.503Z,5.55
2023-10-30T09:45:07.975Z,5.70
2023-10-30T09:47:35.812Z,5.60
2023-10-30T09:50:05.090Z,6.32
2023-10-30T09:52:34.144Z,7.25
2023-10-30T09:55:06.350Z,5.20
2023-10-30T09:57:34.643Z,7.15
2023-10-30T10:00:03.331Z,5.65
2023-10-30T10:02:36.089Z,5.78
2023-10-30T10:05:03.989Z,4.82
2023-10-30T10:07:31.636Z,6.50
2023-10-30T10:10:00.612Z,4.90
2023-10-30T10:12:29.895Z,5.32
2023-10-30T10:14:57.615Z,5.35
2023-10-30T10:17:25.018Z,4.35
2023-10-30T10:19:52.314Z,6.75
2023-10-30T10:22:22.892Z,5.85
2023-10-30T10:24:50.650Z,7.72
2023-10-30T10:27:18.084Z,4.47
2023-10-30T10:29:45.690Z,5.13
2023-10-30T10:32:13.222Z,5.18
2023-10-30T10:34:42.176Z,6.00
2023-10-30T10:37:18.737Z,6.20
2023-10-30T10:39:50.347Z,5.97
2023-10-30T10:42:20.891Z,6.47
2023-10-30T10:44:50.772Z,5.63
2023-10-30T10:47:18.887Z,7.68
2023-10-30T10:49:48.036Z,6.75
2023-10-30T10:52:19.709Z,5.90
2023-10-30T10:54:56.004Z,6.53
2023-10-30T10:57:25.194Z,7.05
2023-10-30T10:59:57.176Z,6.68
2023-10-30T11:02:31.739Z,6.20
2023-10-30T11:05:01.004Z,7.18
2023-10-30T11:07:37.043Z,5.40
2023-10-30T11:10:11.421Z,7.40
2023-10-30T11:12:41.076Z,6.38
2023-10-30T11:15:14.669Z,5.43
2023-10-30T11:20:09.879Z,5.80
2023-10-30T11:22:40.711Z,8.65
2023-10-30T11:25:30.009Z,7.60
2023-10-30T11:27:58.547Z,5.97
2023-10-30T11:30:25.729Z,7.38
2023-10-30T11:32:54.380Z,9.50
2023-10-30T11:35:23.798Z,7.45
2023-10-30T11:37:54.201Z,6.15
2023-10-30T11:40:21.782Z,7.72
2023-10-30T11:42:49.232Z,6.72
2023-10-30T11:45:23.413Z,7.65
2023-10-30T11:47:58.546Z,6.82
2023-10-30T11:50:28.516Z,8.73
2023-10-30T11:52:59.395Z,9.70
2023-10-30T11:55:29.415Z,6.40
2023-10-30T11:57:59.785Z,8.50
2023-10-30T12:00:27.288Z,6.85
2023-10-30T12:02:56.007Z,9.32
2023-10-30T12:05:27.363Z,7.03
2023-10-30T12:07:54.793Z,8.38
2023-10-30T12:10:22.226Z,8.00
2023-10-30T12:12:49.426Z,5.68
2023-10-30T12:15:17.194Z,8.65
2023-10-30T12:17:45.983Z,9.20
2023-10-30T12:20:13.464Z,6.97
2023-10-30T12:22:43.359Z,10.48
2023-10-30T12:25:17.459Z,8.25
2023-10-30T12:27:45.702Z,11.57
2023-10-30T12:30:15.593Z,10.30
2023-10-30T12:32:43.395Z,14.25
2023-10-30T12:35:13.260Z,12.35
2023-10-30T12:37:41.115Z,13.85
2023-10-30T12:40:11.050Z,9.45
2023-10-30T12:42:39.945Z,10.40
2023-10-30T12:45:10.453Z,13.32
2023-10-30T12:47:38.316Z,16.88
2023-10-30T12:50:06.313Z,12.50
2023-10-30T12:52:34.245Z,10.35
2023-10-30T12:55:01.555Z,13.80
2023-10-30T12:57:28.904Z,11.65
2023-10-30T12:59:56.506Z,13.77
2023-10-30T13:02:24.640Z,13.75
2023-10-30T13:04:52.197Z,15.20
2023-10-30T13:07:19.885Z,15.73
2023-10-30T13:09:48.508Z,10.90
2023-10-30T13:12:16.163Z,12.90
2023-10-30T13:14:43.785Z,11.85
2023-10-30T13:17:11.224Z,11.02
2023-10-30T13:19:38.651Z,13.07
2023-10-30T13:22:06.000Z,12.48
2023-10-30T13:24:33.368Z,11.77
2023-10-30T13:27:00.754Z,14.20
2023-10-30T13:29:29.122Z,8.20
2023-10-30T13:31:56.579Z,8.43
2023-10-30T13:34:23.873Z,14.15
2023-10-30T13:36:51.294Z,11.43
2023-10-30T13:39:18.686Z,9.23
2023-10-30T13:41:46.173Z,11.02
2023-10-30T13:44:14.302Z,10.10
2023-10-30T13:46:41.891Z,9.95
2023-10-30T13:49:09.080Z,11.05
2023-10-30T13:51:36.651Z,10.20
2023-10-30T13:54:04.277Z,8.65
2023-10-30T13:56:32.192Z,11.63
2023-10-30T13:58:59.803Z,10.38
2023-10-30T14:01:27.349Z,10.02
2023-10-30T14:03:54.674Z,9.25
2023-10-30T14:06:22.183Z,10.05
2023-10-30T14:08:49.494Z,11.85
2023-10-30T14:11:16.761Z,7.03
2023-10-30T14:13:44.162Z,10.27
2023-10-30T14:16:11.822Z,10.73
2023-10-30T14:18:41.593Z,14.27
2023-10-30T14:21:09.234Z,9.32
2023-10-30T14:23:36.939Z,11.30
2023-10-30T14:26:04.498Z,12.63
2023-10-30T14:28:31.722Z,9.57
2023-10-30T14:30:59.317Z,11.20
2023-10-30T14:33:26.686Z,13.52
2023-10-30T14:35:53.926Z,14.18
2023-10-30T14:38:21.250Z,13.48
2023-10-30T14:40:48.438Z,15.57
2023-10-30T14:43:15.788Z,13.73
2023-10-30T14:45:43.501Z,16.23
2023-10-30T14:48:10.949Z,13.13
2023-10-30T14:50:38.895Z,13.15
2023-10-30T14:53:07.603Z,13.18
2023-10-30T14:55:34.771Z,11.07
2023-10-30T14:58:05.229Z,15.18
2023-10-30T15:00:32.682Z,11.68
2023-10-30T15:02:59.909Z,15.70
2023-10-30T15:05:27.502Z,9.68
2023-10-30T15:07:57.017Z,10.30
2023-10-30T15:10:24.657Z,15.45
2023-10-30T15:12:51.919Z,12.43
2023-10-30T15:15:19.456Z,14.57
2023-10-30T15:17:46.777Z,13.73
2023-10-30T15:20:14.225Z,14.75
2023-10-30T15:22:41.474Z,12.32
2023-10-30T15:25:09.148Z,12.05
2023-10-30T15:27:37.659Z,13.50
2023-10-30T15:30:08.032Z,14.60
2023-10-30T15:32:38.053Z,11.48
2023-10-30T15:35:06.763Z,10.43
2023-10-30T15:37:35.255Z,12.38
2023-10-30T15:40:03.943Z,15.82
2023-10-30T15:42:31.244Z,12.10
2023-10-30T15:44:58.515Z,10.88
2023-10-30T15:47:26.117Z,11.00
2023-10-30T15:49:53.667Z,10.98
2023-10-30T15:59:42.849Z,12.57
2023-10-30T16:02:10.326Z,13.10
2023-10-30T16:07:08.224Z,15.93
2023-10-30T16:09:35.626Z,16.27
2023-10-30T16:14:33.992Z,18.95
2023-10-30T16:17:18.842Z,14.00
2023-10-30T16:20:21.902Z,15.55
2023-10-30T16:22:35.772Z,17.73
2023-10-30T16:25:04.028Z,15.32
2023-10-30T16:27:31.398Z,17.20
2023-10-30T16:30:02.781Z,14.30
2023-10-30T16:32:30.973Z,13.27
2023-10-30T16:34:58.427Z,13.18
2023-10-30T16:37:25.744Z,17.90
2023-10-30T16:39:53.072Z,15.63
2023-10-30T16:42:20.571Z,20.95
2023-10-30T16:44:48.674Z,18.30
2023-10-30T16:47:17.067Z,15.60
2023-10-30T16:49:44.477Z,19.00
2023-10-30T16:52:12.176Z,13.52
2023-10-30T16:54:39.533Z,15.48
2023-10-30T16:57:06.724Z,12.52
2023-10-30T16:59:34.022Z,13.52
2023-10-30T17:02:01.317Z,13.10
2023-10-30T17:04:28.726Z,13.02
2023-10-30T17:06:55.950Z,18.02
2023-10-30T17:09:23.295Z,15.25
2023-10-30T17:11:50.520Z,16.02
2023-10-30T17:14:17.821Z,18.35
2023-10-30T17:16:46.140Z,18.27
2023-10-30T17:19:16.781Z,11.27
2023-10-30T17:21:45.131Z,11.50
2023-10-30T17:24:12.651Z,13.13
2023-10-30T17:26:40.091Z,14.23
2023-10-30T17:29:07.501Z,16.85
2023-10-30T17:31:34.736Z,20.42
2023-10-30T17:34:04.284Z,18.17
2023-10-30T17:36:34.265Z,13.82
2023-10-30T17:39:02.073Z,13.40
2023-10-30T17:41:29.540Z,13.80
2023-10-30T17:43:56.967Z,15.93
2023-10-30T17:46:24.321Z,13.38
2023-10-30T17:48:52.152Z,20.67
2023-10-30T17:51:19.368Z,18.40
2023-10-30T17:53:46.620Z,14.25
2023-10-30T17:56:13.909Z,14.10
2023-10-30T17:58:41.431Z,16.52
2023-10-30T18:01:13.852Z,13.02
2023-10-30T18:03:43.713Z,13.52
2023-10-30T18:06:12.772Z,13.18
2023-10-30T18:08:40.734Z,16.67
2023-10-30T18:11:08.171Z,18.17
2023-10-30T18:13:35.801Z,16.63
2023-10-30T18:16:03.390Z,15.80
2023-10-30T18:18:30.951Z,11.85
2023-10-30T18:20:58.237Z,15.23
2023-10-30T18:23:25.840Z,14.13
2023-10-30T18:25:53.384Z,10.45
2023-10-30T18:28:22.863Z,11.43
2023-10-30T18:30:51.189Z,20.45
2023-10-30T18:33:18.576Z,12.93
2023-10-30T18:35:48.154Z,13.43
2023-10-30T18:38:16.642Z,11.65
2023-10-30T18:40:44.058Z,9.48
2023-10-30T18:43:11.371Z,12.85
2023-10-30T18:45:38.538Z,13.45
2023-10-30T18:48:07.429Z,10.05
2023-10-30T18:50:34.754Z,18.77
2023-10-30T18:53:02.541Z,17.48
2023-10-30T18:55:29.837Z,15.35
2023-10-30T18:57:57.426Z,16.92
2023-10-30T19:00:24.619Z,13.05
2023-10-30T19:02:52.205Z,12.57
2023-10-30T19:05:19.523Z,10.48
2023-10-30T19:07:48.118Z,16.38
2023-10-30T19:10:15.580Z,15.98
2023-10-30T19:12:42.986Z,12.05
2023-10-30T19:15:10.660Z,13.27
2023-10-30T19:17:38.038Z,12.35
2023-10-30T19:20:06.224Z,16.17
2023-10-30T19:22:33.939Z,17.67
2023-10-30T19:25:01.203Z,14.45
2023-10-30T19:27:28.484Z,16.13
2023-10-30T19:29:55.679Z,12.25
2023-10-30T19:32:23.250Z,13.88
2023-10-30T19:34:50.616Z,20.95
2023-10-30T19:37:18.001Z,13.65
2023-10-30T19:39:45.441Z,14.57
2023-10-30T19:42:12.709Z,18.52
2023-10-30T19:44:39.980Z,16.88
2023-10-30T19:47:07.439Z,15.20
2023-10-30T19:49:35.218Z,16.40
2023-10-30T19:52:06.066Z,13.80
2023-10-30T19:54:34.413Z,16.20
2023-10-30T19:57:01.739Z,14.13
2023-10-30T19:59:28.982Z,16.48
2023-10-30T20:01:56.421Z,17.63
2023-10-30T20:04:23.678Z,18.67
2023-10-30T20:06:50.951Z,17.10
2023-10-30T20:09:18.283Z,13.23
2023-10-30T20:11:45.511Z,16.45
2023-10-30T20:14:12.761Z,13.07
2023-10-30T20:16:40.092Z,16.13
2023-10-30T20:19:07.581Z,12.70
2023-10-30T20:21:37.139Z,15.95
2023-10-30T20:24:05.002Z,13.38
2023-10-30T20:26:32.228Z,13.85
2023-10-30T20:28:59.551Z,12.18
2023-10-30T20:31:27.140Z,14.40
2023-10-30T20:33:54.562Z,18.98
2023-10-30T20:36:21.784Z,13.93
2023-10-30T20:38:49.158Z,17.27
2023-10-30T20:41:17.679Z,16.33
2023-10-30T20:43:45.141Z,13.73
2023-10-30T20:46:13.801Z,13.85
2023-10-30T20:48:41.647Z,11.95
2023-10-30T20:51:09.015Z,13.95
2023-10-30T20:53:36.637Z,14.35
2023-10-30T20:56:04.230Z,17.50
2023-10-30T20:58:31.742Z,20.52
2023-10-30T21:00:59.133Z,15.98
2023-10-30T21:03:26.471Z,27.05
2023-10-30T21:05:53.785Z,31.95
2023-10-30T21:08:22.498Z,29.02
2023-10-30T21:10:50.067Z,33.00
2023-10-30T21:13:20.483Z,25.20
2023-10-30T21:15:48.754Z,31.75
2023-10-30T21:18:17.529Z,22.45
2023-10-30T21:20:45.411Z,16.50
2023-10-30T21:23:12.985Z,21.20
2023-10-30T21:25:40.358Z,21.75
2023-10-30T21:28:07.927Z,20.33
2023-10-30T21:30:35.478Z,15.18
2023-10-30T21:33:03.237Z,18.38
2023-10-30T21:35:31.773Z,16.00
2023-10-30T21:37:59.296Z,14.05
2023-10-30T21:40:27.033Z,14.15
2023-10-30T21:42:54.375Z,16.48
2023-10-30T21:45:21.776Z,18.83
2023-10-30T21:47:49.057Z,17.73
2023-10-30T21:50:16.644Z,13.48
2023-10-30T21:52:44.141Z,15.50
2023-10-30T21:55:11.724Z,16.50
2023-10-30T21:57:39.079Z,28.38
2023-10-30T22:00:09.244Z,16.83
2023-10-30T22:02:38.316Z,17.42
2023-10-30T22:05:06.481Z,19.05
2023-10-30T22:07:33.985Z,17.13
2023-10-30T22:10:01.609Z,23.75
2023-10-30T22:12:28.998Z,20.13
2023-10-30T22:14:56.405Z,18.00
2023-10-30T22:17:23.711Z,20.63
2023-10-30T22:19:51.194Z,14.73
2023-10-30T22:22:18.623Z,15.93
2023-10-30T22:24:46.049Z,12.43
2023-10-30T22:27:13.333Z,19.10
2023-10-30T22:29:40.814Z,21.02
2023-10-30T22:32:08.374Z,19.00
2023-10-30T22:34:35.827Z,18.30
2023-10-30T22:37:03.943Z,15.63
2023-10-30T22:39:31.394Z,12.90
2023-10-30T22:41:58.723Z,14.45
2023-10-30T22:44:26.150Z,18.38
2023-10-30T22:46:53.582Z,16.08
2023-10-30T22:49:21.374Z,14.38
2023-10-30T22:51:48.787Z,12.20
2023-10-30T22:54:16.254Z,14.18
2023-10-30T22:56:43.687Z,12.68
2023-10-30T22:59:11.432Z,14.73
2023-10-30T23:01:39.604Z,15.10
2023-10-30T23:04:07.124Z,30.80
2023-10-30T23:06:34.631Z,14.52
2023-10-30T23:09:02.106Z,15.57
2023-10-30T23:11:29.504Z,15.82
2023-10-30T23:13:59.213Z,15.85
2023-10-30T23:16:26.674Z,14.25
2023-10-30T23:18:54.229Z,11.57
2023-10-30T23:21:21.697Z,13.48
2023-10-30T23:23:49.256Z,15.23
2023-10-30T23:26:16.630Z,12.98
2023-10-30T23:28:44.438Z,18.02
2023-10-30T23:31:11.908Z,14.60
2023-10-30T23:33:39.438Z,15.77
2023-10-30T23:36:10.006Z,13.32
2023-10-30T23:38:37.648Z,17.02
2023-10-30T23:41:04.986Z,19.55
2023-10-30T23:43:32.470Z,14.20
2023-10-30T23:45:59.775Z,15.48
2023-10-30T23:48:27.234Z,15.40
2023-10-30T23:50:54.656Z,11.85
2023-10-30T23:53:22.139Z,16.20
2023-10-30T23:55:49.455Z,16.58
2023-10-30T23:58:17.036Z,12.43
